createdAt,value
2022-08-31T00:00:13.190Z,101615.95
2022-08-31T00:02:59.609Z,101616.80
2022-08-31T00:05:27.627Z,101616.01
2022-08-31T00:07:55.987Z,101625.13
2022-08-31T00:10:31.847Z,101625.52
2022-08-31T00:13:01.418Z,101622.58
2022-08-31T00:15:31.281Z,101618.33
2022-08-31T00:17:59.194Z,101621.11
2022-08-31T00:20:34.041Z,101615.29
2022-08-31T00:23:07.047Z,101609.05
2022-08-31T00:25:35.541Z,101614.44
2022-08-31T00:28:03.959Z,101616.08
2022-08-31T00:30:32.049Z,101619.41
2022-08-31T00:32:59.993Z,101623.98
2022-08-31T00:35:28.720Z,101618.33
2022-08-31T00:37:56.695Z,101610.91
2022-08-31T00:40:24.819Z,101612.09
2022-08-31T00:42:52.676Z,101609.14
2022-08-31T00:45:20.679Z,101620.29
2022-08-31T00:47:48.573Z,101615.32
2022-08-31T00:50:18.277Z,101616.56
2022-08-31T00:52:49.251Z,101615.68
2022-08-31T00:55:18.135Z,101614.44
2022-08-31T00:57:47.336Z,101616.01
2022-08-31T01:00:17.831Z,101613.91
2022-08-31T01:02:45.889Z,101618.04
2022-08-31T01:05:13.953Z,101613.85
2022-08-31T01:07:41.923Z,101604.34
2022-08-31T01:10:10.129Z,101607.28
2022-08-31T01:12:37.973Z,101601.46
2022-08-31T01:15:07.604Z,101607.67
2022-08-31T01:17:36.076Z,101607.67
2022-08-31T01:20:13.041Z,101612.25
2022-08-31T01:23:04.067Z,101611.46
2022-08-31T01:25:33.556Z,101617.25
2022-08-31T01:28:02.406Z,101609.41
2022-08-31T01:30:30.283Z,101606.56
2022-08-31T01:32:58.104Z,101607.41
2022-08-31T01:35:26.102Z,101604.11
2022-08-31T01:37:53.966Z,101605.74
2022-08-31T01:40:21.931Z,101609.47
2022-08-31T01:42:49.797Z,101602.87
2022-08-31T01:45:18.573Z,101602.90
2022-08-31T01:47:46.437Z,101597.99
2022-08-31T01:50:14.366Z,101607.57
2022-08-31T01:52:42.234Z,101617.88
2022-08-31T01:55:10.407Z,101618.27
2022-08-31T01:57:40.973Z,101622.05
2022-08-31T02:00:10.025Z,101632.81
2022-08-31T02:02:37.899Z,101634.45
2022-08-31T02:05:06.822Z,101631.09
2022-08-31T02:07:34.781Z,101617.05
2022-08-31T02:10:02.614Z,101619.97
2022-08-31T02:12:30.455Z,101622.45
2022-08-31T02:14:58.270Z,101616.27
2022-08-31T02:17:26.159Z,101616.30
2022-08-31T02:19:53.985Z,101615.03
2022-08-31T02:22:21.848Z,101622.48
2022-08-31T02:24:49.633Z,101619.21
2022-08-31T02:27:17.567Z,101620.91
2022-08-31T02:29:45.400Z,101625.91
2022-08-31T02:32:20.051Z,101627.16
2022-08-31T02:34:49.457Z,101627.62
2022-08-31T02:37:17.744Z,101641.68
2022-08-31T02:39:48.779Z,101634.65
2022-08-31T02:42:18.441Z,101640.53
2022-08-31T02:44:46.624Z,101642.13
2022-08-31T02:47:14.503Z,101644.20
2022-08-31T02:49:42.318Z,101645.05
2022-08-31T02:52:10.200Z,101638.80
2022-08-31T02:54:38.107Z,101641.68
2022-08-31T02:57:06.136Z,101639.62
2022-08-31T02:59:33.998Z,101650.80
2022-08-31T03:02:02.185Z,101647.43
2022-08-31T03:04:31.180Z,101652.79
2022-08-31T03:06:59.224Z,101654.49
2022-08-31T03:09:27.070Z,101656.13
2022-08-31T03:11:54.949Z,101654.49
2022-08-31T03:14:22.779Z,101663.52
2022-08-31T03:16:51.937Z,101658.13
2022-08-31T03:19:20.741Z,101665.55
2022-08-31T03:21:48.706Z,101672.12
2022-08-31T03:24:27.204Z,101672.51
2022-08-31T03:26:56.109Z,101671.10
2022-08-31T03:29:24.058Z,101673.55
2022-08-31T03:31:51.934Z,101675.13
2022-08-31T03:34:19.789Z,101680.09
2022-08-31T03:36:47.580Z,101676.76
2022-08-31T03:39:15.336Z,101690.00
2022-08-31T03:41:43.091Z,101696.57
2022-08-31T03:44:10.862Z,101709.72
2022-08-31T03:46:38.857Z,101698.47
2022-08-31T03:49:07.408Z,101704.26
2022-08-31T03:51:35.174Z,101694.68
2022-08-31T03:54:02.970Z,101685.95
2022-08-31T03:56:30.710Z,101676.27
2022-08-31T03:58:58.540Z,101669.99
2022-08-31T04:01:26.324Z,101665.74
2022-08-31T04:03:54.092Z,101662.38
2022-08-31T04:06:21.948Z,101671.37
2022-08-31T04:08:49.717Z,101667.48
2022-08-31T04:11:19.821Z,101663.16
2022-08-31T04:13:57.731Z,101668.42
2022-08-31T04:16:25.613Z,101681.63
2022-08-31T04:18:53.497Z,101684.41
2022-08-31T04:21:23.055Z,101686.44
2022-08-31T04:23:51.101Z,101692.98
2022-08-31T04:26:30.230Z,101691.24
2022-08-31T04:28:58.673Z,101684.61
2022-08-31T04:31:26.797Z,101689.48
2022-08-31T04:33:54.853Z,101695.20
2022-08-31T04:36:24.233Z,101686.14
2022-08-31T04:38:53.114Z,101685.23
2022-08-31T04:41:22.292Z,101680.16
2022-08-31T04:43:52.740Z,101677.71
2022-08-31T04:46:20.728Z,101674.80
2022-08-31T04:48:48.676Z,101683.04
2022-08-31T04:51:18.979Z,101687.52
2022-08-31T04:53:46.794Z,101692.09
2022-08-31T04:56:17.300Z,101692.42
2022-08-31T04:58:46.627Z,101698.21
2022-08-31T05:01:16.202Z,101696.51
2022-08-31T05:03:45.040Z,101708.84
2022-08-31T05:06:17.130Z,101706.28
2022-08-31T05:08:45.023Z,101717.73
2022-08-31T05:11:19.841Z,101718.80
2022-08-31T05:13:49.863Z,101720.70
2022-08-31T05:16:18.145Z,101716.91
2022-08-31T05:18:46.765Z,101721.65
2022-08-31T05:21:20.982Z,101732.64
2022-08-31T05:23:49.771Z,101726.03
2022-08-31T05:26:22.461Z,101726.39
2022-08-31T05:28:52.697Z,101730.12
2022-08-31T05:31:21.048Z,101741.14
2022-08-31T05:33:48.908Z,101737.80
2022-08-31T05:36:16.855Z,101741.79
2022-08-31T05:38:44.670Z,101741.89
2022-08-31T05:41:12.459Z,101736.98
2022-08-31T05:43:40.442Z,101740.32
2022-08-31T05:46:11.939Z,101747.38
2022-08-31T05:48:39.704Z,101747.38
2022-08-31T05:51:11.439Z,101751.11
2022-08-31T05:53:40.899Z,101749.90
2022-08-31T05:56:19.146Z,101743.27
2022-08-31T05:58:47.511Z,101753.23
2022-08-31T06:01:17.272Z,101744.63
2022-08-31T06:03:45.171Z,101749.77
2022-08-31T06:06:13.573Z,101752.13
2022-08-31T06:08:41.427Z,101753.43
2022-08-31T06:11:14.754Z,101754.61
2022-08-31T06:13:43.033Z,101742.97
2022-08-31T06:16:11.153Z,101752.81
2022-08-31T06:18:51.905Z,101753.92
2022-08-31T06:21:49.976Z,101758.96
2022-08-31T06:24:18.973Z,101749.51
2022-08-31T06:26:57.371Z,101755.59
2022-08-31T06:29:26.276Z,101755.69
2022-08-31T06:31:54.207Z,101749.80
2022-08-31T06:34:22.406Z,101746.47
2022-08-31T06:36:50.477Z,101740.58
2022-08-31T06:39:18.777Z,101733.88
2022-08-31T06:41:46.576Z,101735.58
2022-08-31T06:44:15.041Z,101736.01
2022-08-31T06:46:47.476Z,101750.00
2022-08-31T06:49:15.781Z,101753.73
2022-08-31T06:51:43.917Z,101750.45
2022-08-31T06:54:30.173Z,101750.91
2022-08-31T06:57:03.790Z,101743.13
2022-08-31T07:01:05.861Z,101754.74
2022-08-31T07:03:35.787Z,101761.02
2022-08-31T07:06:12.928Z,101766.38
2022-08-31T07:08:41.359Z,101774.69
2022-08-31T07:11:18.098Z,101774.29
2022-08-31T07:13:45.945Z,101767.79
2022-08-31T07:16:15.249Z,101770.66
2022-08-31T07:18:43.328Z,101773.54
2022-08-31T07:21:14.384Z,101785.21
2022-08-31T07:23:42.302Z,101782.23
2022-08-31T07:26:12.095Z,101778.51
2022-08-31T07:28:39.937Z,101775.99
2022-08-31T07:31:07.885Z,101782.70
2022-08-31T07:36:13.201Z,101778.34
2022-08-31T07:38:59.651Z,101783.28
2022-08-31T07:41:57.633Z,101784.04
2022-08-31T07:44:25.918Z,101786.72
2022-08-31T07:46:56.550Z,101791.59
2022-08-31T07:49:24.555Z,101793.26
2022-08-31T07:51:52.669Z,101789.92
2022-08-31T07:54:25.580Z,101794.47
2022-08-31T07:57:06.988Z,101794.47
2022-08-31T07:59:36.375Z,101796.98
2022-08-31T08:02:07.175Z,101802.38
2022-08-31T08:04:40.459Z,101804.05
2022-08-31T08:07:09.635Z,101792.60
2022-08-31T08:09:39.108Z,101798.75
2022-08-31T08:12:08.056Z,101796.59
2022-08-31T08:14:41.017Z,101802.77
2022-08-31T08:17:09.471Z,101808.62
2022-08-31T08:19:38.484Z,101801.17
2022-08-31T08:22:07.395Z,101802.87
2022-08-31T08:24:36.039Z,101811.60
2022-08-31T08:27:04.506Z,101814.87
2022-08-31T08:29:33.619Z,101817.88
2022-08-31T08:32:01.822Z,101819.64
2022-08-31T08:34:32.484Z,101816.73
2022-08-31T08:37:01.144Z,101820.55
2022-08-31T08:39:29.228Z,101816.47
2022-08-31T08:41:57.948Z,101821.51
2022-08-31T08:44:28.746Z,101817.78
2022-08-31T08:47:00.665Z,101828.02
2022-08-31T08:49:45.039Z,101825.07
2022-08-31T08:52:31.437Z,101822.26
2022-08-31T08:55:04.566Z,101822.62
2022-08-31T08:57:36.628Z,101813.82
2022-08-31T09:00:22.650Z,101825.00
2022-08-31T09:02:59.485Z,101826.84
2022-08-31T09:05:36.503Z,101828.21
2022-08-31T09:08:17.380Z,101831.28
2022-08-31T09:10:59.600Z,101837.98
2022-08-31T09:13:54.334Z,101836.38
2022-08-31T09:16:42.199Z,101835.86
2022-08-31T09:19:13.118Z,101833.41
2022-08-31T09:21:47.718Z,101837.98
2022-08-31T09:24:28.804Z,101838.15
2022-08-31T09:27:21.066Z,101841.13
2022-08-31T09:29:54.350Z,101841.19
2022-08-31T09:32:28.648Z,101841.41
2022-08-31T09:35:02.857Z,101837.40
2022-08-31T09:37:36.570Z,101844.55
2022-08-31T09:40:23.630Z,101848.74
2022-08-31T09:43:13.928Z,101838.90
2022-08-31T09:46:08.628Z,101834.71
2022-08-31T09:48:52.766Z,101832.23
2022-08-31T09:51:29.609Z,101843.31
2022-08-31T09:54:26.270Z,101842.95
2022-08-31T09:56:59.030Z,101841.74
2022-08-31T09:59:50.584Z,101840.08
2022-08-31T10:02:25.955Z,101839.23
2022-08-31T10:04:56.607Z,101832.69
2022-08-31T10:07:46.701Z,101838.48
2022-08-31T10:10:30.974Z,101845.47
2022-08-31T10:13:09.988Z,101841.35
2022-08-31T10:15:53.965Z,101840.21
2022-08-31T10:18:24.064Z,101835.76
2022-08-31T10:20:58.127Z,101849.82
2022-08-31T10:23:38.167Z,101855.61
2022-08-31T10:26:32.860Z,101863.03
2022-08-31T10:29:02.564Z,101861.30
2022-08-31T10:31:35.353Z,101860.87
2022-08-31T10:34:30.480Z,101864.17
2022-08-31T10:37:06.717Z,101861.79
2022-08-31T10:39:56.880Z,101862.15
2022-08-31T10:42:31.431Z,101855.51
2022-08-31T10:45:18.222Z,101855.45
2022-08-31T10:47:50.552Z,101852.93
2022-08-31T10:50:29.509Z,101847.59
2022-08-31T10:53:12.357Z,101849.30
2022-08-31T10:55:59.977Z,101848.41
2022-08-31T10:58:56.655Z,101847.70
2022-08-31T11:01:40.624Z,101855.25
2022-08-31T11:04:35.772Z,101841.22
2022-08-31T11:07:29.545Z,101840.14
2022-08-31T11:10:00.482Z,101842.73
2022-08-31T11:12:32.351Z,101845.70
2022-08-31T11:15:23.654Z,101846.16
2022-08-31T11:18:22.872Z,101848.35
2022-08-31T11:21:30.183Z,101846.35
2022-08-31T11:24:40.483Z,101839.48
2022-08-31T11:27:20.421Z,101843.15
2022-08-31T11:29:58.292Z,101844.39
2022-08-31T11:32:48.840Z,101833.99
2022-08-31T11:35:16.910Z,101839.48
2022-08-31T11:37:54.093Z,101835.44
2022-08-31T11:40:46.474Z,101832.63
2022-08-31T11:43:40.436Z,101830.98
2022-08-31T11:46:27.111Z,101833.11
2022-08-31T11:48:56.143Z,101826.12
2022-08-31T11:51:41.040Z,101828.24
2022-08-31T11:54:34.437Z,101822.81
2022-08-31T11:57:04.597Z,101829.13
2022-08-31T11:59:40.328Z,101832.91
2022-08-31T12:02:20.798Z,101826.34
2022-08-31T12:04:53.327Z,101825.95
2022-08-31T12:07:35.938Z,101823.89
2022-08-31T12:10:27.528Z,101826.02
2022-08-31T12:13:21.742Z,101815.72
2022-08-31T12:16:19.254Z,101826.61
2022-08-31T12:18:56.463Z,101832.10
2022-08-31T12:21:57.650Z,101821.80
2022-08-31T12:24:51.494Z,101824.74
2022-08-31T12:27:41.502Z,101829.41
2022-08-31T12:30:19.594Z,101825.43
2022-08-31T12:32:47.654Z,101815.55
2022-08-31T12:35:15.518Z,101811.53
2022-08-31T12:37:43.796Z,101811.20
2022-08-31T12:40:22.956Z,101807.97
2022-08-31T12:43:18.747Z,101811.73
2022-08-31T12:46:05.126Z,101811.80
2022-08-31T12:48:48.001Z,101813.52
2022-08-31T12:51:40.841Z,101810.62
2022-08-31T12:54:10.853Z,101804.41
2022-08-31T12:56:45.898Z,101807.71
2022-08-31T12:59:59.406Z,101803.13
2022-08-31T13:02:24.740Z,101805.19
2022-08-31T13:04:53.092Z,101803.52
2022-08-31T13:07:38.995Z,101803.91
2022-08-31T13:10:11.119Z,101813.43
2022-08-31T13:12:39.452Z,101810.45
2022-08-31T13:15:13.583Z,101819.15
2022-08-31T13:17:42.521Z,101814.21
2022-08-31T13:20:10.801Z,101803.49
2022-08-31T13:22:43.958Z,101813.04
2022-08-31T13:25:33.045Z,101803.82
2022-08-31T13:28:01.100Z,101798.39
2022-08-31T13:30:29.526Z,101791.36
2022-08-31T13:32:58.493Z,101793.84
2022-08-31T13:35:27.345Z,101783.84
2022-08-31T13:38:06.801Z,101776.09
2022-08-31T13:40:39.037Z,101774.85
2022-08-31T13:43:08.996Z,101782.43
2022-08-31T13:45:41.905Z,101778.70
2022-08-31T13:48:20.492Z,101782.50
2022-08-31T13:50:54.883Z,101779.16
2022-08-31T13:53:43.348Z,101778.38
2022-08-31T13:56:47.882Z,101771.55
2022-08-31T13:59:24.443Z,101774.72
2022-08-31T14:01:57.044Z,101772.04
2022-08-31T14:04:50.763Z,101766.25
2022-08-31T14:07:32.477Z,101770.50
2022-08-31T14:10:18.136Z,101764.77
2022-08-31T14:12:53.480Z,101766.74
2022-08-31T14:15:39.985Z,101769.59
2022-08-31T14:18:25.805Z,101772.43
2022-08-31T14:21:21.572Z,101777.82
2022-08-31T14:24:03.418Z,101768.24
2022-08-31T14:26:38.056Z,101773.18
2022-08-31T14:29:11.265Z,101779.42
2022-08-31T14:31:59.146Z,101777.30
2022-08-31T14:34:33.451Z,101768.08
2022-08-31T14:37:05.804Z,101772.59
2022-08-31T14:39:36.299Z,101772.59
2022-08-31T14:42:28.724Z,101772.92
2022-08-31T14:45:30.404Z,101770.66
2022-08-31T14:48:00.537Z,101766.12
2022-08-31T14:50:28.741Z,101767.33
2022-08-31T14:52:58.732Z,101768.51
2022-08-31T14:55:27.602Z,101770.95
2022-08-31T14:57:59.402Z,101765.89
2022-08-31T15:00:30.266Z,101765.46
2022-08-31T15:02:58.392Z,101757.95
2022-08-31T15:05:26.986Z,101754.12
2022-08-31T15:07:55.351Z,101764.05
2022-08-31T15:10:26.281Z,101765.30
2022-08-31T15:12:54.941Z,101759.05
2022-08-31T15:15:23.196Z,101753.66
2022-08-31T15:17:52.561Z,101753.98
2022-08-31T15:20:21.315Z,101752.35
2022-08-31T15:22:49.459Z,101756.93
2022-08-31T15:25:18.232Z,101751.96
2022-08-31T15:27:46.890Z,101762.36
2022-08-31T15:30:17.084Z,101754.97
2022-08-31T15:32:48.349Z,101751.66
2022-08-31T15:35:21.251Z,101745.95
2022-08-31T15:37:57.600Z,101735.65
2022-08-31T15:40:28.962Z,101744.34
2022-08-31T15:42:57.645Z,101745.62
2022-08-31T15:45:29.639Z,101746.04
2022-08-31T15:48:19.836Z,101742.71
2022-08-31T15:50:52.212Z,101743.13
2022-08-31T15:53:23.099Z,101738.49
2022-08-31T15:55:51.020Z,101738.49
2022-08-31T15:58:24.658Z,101736.43
2022-08-31T16:00:52.979Z,101738.95
2022-08-31T16:03:21.129Z,101734.44
2022-08-31T16:05:49.896Z,101728.16
2022-08-31T16:08:18.327Z,101729.01
2022-08-31T16:10:47.490Z,101731.46
2022-08-31T16:13:17.127Z,101729.79
2022-08-31T16:15:52.619Z,101726.91
2022-08-31T16:18:23.644Z,101711.58
2022-08-31T16:20:53.140Z,101719.92
2022-08-31T16:23:22.176Z,101715.34
2022-08-31T16:25:50.104Z,101708.70
2022-08-31T16:28:21.652Z,101704.19
2022-08-31T16:30:55.865Z,101708.73
2022-08-31T16:33:23.921Z,101716.62
2022-08-31T16:35:53.228Z,101712.07
2022-08-31T16:38:21.597Z,101704.19
2022-08-31T16:40:50.147Z,101707.52
2022-08-31T16:43:18.349Z,101707.52
2022-08-31T16:45:46.538Z,101710.44
2022-08-31T16:48:33.214Z,101704.62
2022-08-31T16:51:03.055Z,101709.62
2022-08-31T16:53:32.175Z,101702.10
2022-08-31T16:56:01.108Z,101698.80
2022-08-31T16:58:51.083Z,101700.79
2022-08-31T17:01:23.287Z,101704.91
2022-08-31T17:03:54.815Z,101714.42
2022-08-31T17:06:26.297Z,101701.09
2022-08-31T17:08:59.253Z,101701.48
2022-08-31T17:11:33.943Z,101702.27
2022-08-31T17:14:02.967Z,101698.86
2022-08-31T17:16:36.005Z,101695.92
2022-08-31T17:19:05.840Z,101696.73
2022-08-31T17:21:35.492Z,101700.79
2022-08-31T17:24:04.814Z,101698.27
2022-08-31T17:26:35.301Z,101697.42
2022-08-31T17:29:05.404Z,101696.97
2022-08-31T17:31:36.202Z,101694.38
2022-08-31T17:34:04.664Z,101696.48
2022-08-31T17:36:37.526Z,101693.11
2022-08-31T17:39:06.619Z,101692.26
2022-08-31T17:41:34.793Z,101690.55
2022-08-31T17:44:03.355Z,101689.70
2022-08-31T17:46:31.980Z,101698.80
2022-08-31T17:49:00.214Z,101694.19
2022-08-31T17:51:30.768Z,101700.46
2022-08-31T17:54:04.710Z,101703.73
2022-08-31T17:56:38.499Z,101712.82
2022-08-31T17:59:07.206Z,101699.94
2022-08-31T18:01:37.168Z,101701.97
2022-08-31T18:04:05.464Z,101704.42
2022-08-31T18:06:37.973Z,101717.20
2022-08-31T18:09:06.243Z,101721.62
2022-08-31T18:11:35.111Z,101726.06
2022-08-31T18:14:03.260Z,101717.70
2022-08-31T18:16:31.781Z,101727.90
2022-08-31T18:19:00.277Z,101724.82
2022-08-31T18:21:28.516Z,101736.17
2022-08-31T18:23:57.020Z,101738.95
2022-08-31T18:26:30.016Z,101743.07
2022-08-31T18:28:58.416Z,101748.66
2022-08-31T18:31:34.452Z,101756.47
2022-08-31T18:34:06.990Z,101751.77
2022-08-31T18:36:39.671Z,101766.18
2022-08-31T18:39:09.801Z,101763.66
2022-08-31T18:41:56.258Z,101762.91
2022-08-31T18:44:56.271Z,101762.52
2022-08-31T18:47:30.192Z,101761.73
2022-08-31T18:50:04.281Z,101766.70
2022-08-31T18:52:44.117Z,101766.28
2022-08-31T18:55:17.210Z,101769.95
2022-08-31T18:57:48.793Z,101770.83
2022-08-31T19:00:18.135Z,101763.34
2022-08-31T19:02:46.878Z,101767.06
2022-08-31T19:05:15.562Z,101769.13
2022-08-31T19:07:46.141Z,101775.70
2022-08-31T19:10:15.616Z,101772.36
2022-08-31T19:12:43.961Z,101775.24
2022-08-31T19:15:12.973Z,101777.70
2022-08-31T19:17:43.479Z,101783.09
2022-08-31T19:20:12.338Z,101784.30
2022-08-31T19:22:41.031Z,101776.45
2022-08-31T19:25:13.474Z,101782.23
2022-08-31T19:27:52.287Z,101783.48
2022-08-31T19:30:27.226Z,101784.30
2022-08-31T19:33:01.233Z,101778.45
2022-08-31T19:35:29.349Z,101778.05
2022-08-31T19:37:57.364Z,101777.98
2022-08-31T19:40:36.102Z,101770.86
2022-08-31T19:45:53.239Z,101779.66
2022-08-31T19:48:24.436Z,101782.89
2022-08-31T19:50:53.071Z,101776.19
2022-08-31T19:53:21.644Z,101779.88
2022-08-31T19:55:51.374Z,101774.88
2022-08-31T19:58:20.564Z,101778.54
2022-08-31T20:00:49.853Z,101769.42
2022-08-31T20:03:20.566Z,101765.30
2022-08-31T20:05:48.907Z,101765.98
2022-08-31T20:08:17.001Z,101757.68
2022-08-31T20:10:46.232Z,101759.32
2022-08-31T20:13:14.296Z,101759.32
2022-08-31T20:15:43.949Z,101760.98
2022-08-31T20:18:15.339Z,101747.28
2022-08-31T20:20:46.656Z,101757.62
2022-08-31T20:23:18.000Z,101753.82
2022-08-31T20:25:46.938Z,101754.58
2022-08-31T20:28:15.766Z,101747.09
2022-08-31T20:30:44.531Z,101749.15
2022-08-31T20:33:13.072Z,101755.33
2022-08-31T20:35:48.625Z,101751.63
2022-08-31T20:38:17.457Z,101747.02
2022-08-31T20:40:46.943Z,101740.35
2022-08-31T20:43:15.247Z,101741.10
2022-08-31T20:45:43.490Z,101735.68
2022-08-31T20:48:30.289Z,101729.89
2022-08-31T20:50:58.338Z,101738.59
2022-08-31T20:53:42.551Z,101736.92
2022-08-31T20:56:17.446Z,101744.67
2022-08-31T20:58:47.292Z,101738.42
2022-08-31T21:01:17.081Z,101743.00
2022-08-31T21:03:44.980Z,101746.20
2022-08-31T21:06:14.129Z,101745.26
2022-08-31T21:08:43.303Z,101744.38
2022-08-31T21:11:12.082Z,101737.28
2022-08-31T21:13:39.843Z,101745.42
2022-08-31T21:16:07.979Z,101745.13
2022-08-31T21:18:35.948Z,101753.98
2022-08-31T21:21:09.226Z,101748.98
2022-08-31T21:23:37.857Z,101748.40
2022-08-31T21:26:06.382Z,101745.42
2022-08-31T21:28:35.024Z,101747.48
2022-08-31T21:31:15.848Z,101743.69
2022-08-31T21:33:46.648Z,101742.74
2022-08-31T21:36:18.719Z,101743.98
2022-08-31T21:38:48.577Z,101738.03
2022-08-31T21:41:18.531Z,101735.52
2022-08-31T21:43:46.371Z,101742.02
2022-08-31T21:46:16.603Z,101743.27
2022-08-31T21:48:45.265Z,101739.44
2022-08-31T21:51:22.177Z,101742.71
2022-08-31T21:54:03.208Z,101743.46
2022-08-31T21:56:32.143Z,101753.34
2022-08-31T21:59:00.410Z,101754.55
2022-08-31T22:01:29.636Z,101745.87
2022-08-31T22:03:58.812Z,101744.67
2022-08-31T22:06:31.991Z,101752.52
2022-08-31T22:09:06.766Z,101755.00
2022-08-31T22:11:38.292Z,101754.19
2022-08-31T22:14:08.922Z,101753.79
2022-08-31T22:16:38.628Z,101746.24
2022-08-31T22:19:11.731Z,101749.05
2022-08-31T22:21:39.797Z,101755.59
2022-08-31T22:24:09.056Z,101747.28
2022-08-31T22:26:38.855Z,101744.77
2022-08-31T22:29:07.475Z,101746.37
2022-08-31T22:31:38.559Z,101743.82
2022-08-31T22:34:10.488Z,101745.06
2022-08-31T22:36:38.733Z,101743.00
2022-08-31T22:39:11.653Z,101739.77
2022-08-31T22:41:40.091Z,101736.85
2022-08-31T22:44:09.649Z,101737.31
2022-08-31T22:46:37.732Z,101736.13
2022-08-31T22:49:06.947Z,101747.19
2022-08-31T22:51:36.925Z,101745.98
2022-08-31T22:54:05.316Z,101740.19
2022-08-31T22:56:34.914Z,101741.43
2022-08-31T22:59:05.558Z,101739.27
2022-08-31T23:01:38.439Z,101741.70
2022-08-31T23:04:07.758Z,101737.90
2022-08-31T23:06:36.933Z,101735.29
2022-08-31T23:09:06.235Z,101734.92
2022-08-31T23:11:33.964Z,101729.89
2022-08-31T23:14:07.134Z,101731.46
2022-08-31T23:16:38.250Z,101737.64
2022-08-31T23:19:20.245Z,101733.42
2022-08-31T23:21:53.077Z,101721.88
2022-08-31T23:24:42.290Z,101721.42
2022-08-31T23:27:12.986Z,101715.08
2022-08-31T23:29:48.900Z,101718.45
2022-08-31T23:32:18.594Z,101723.16
2022-08-31T23:34:47.700Z,101716.88
2022-08-31T23:37:15.462Z,101711.71
2022-08-31T23:39:44.675Z,101704.65
2022-08-31T23:42:13.352Z,101705.95
2022-08-31T23:44:44.376Z,101708.70
2022-08-31T23:47:22.746Z,101700.04
2022-08-31T23:49:52.284Z,101699.71
2022-08-31T23:52:22.326Z,101702.95
2022-08-31T23:54:51.357Z,101692.62
2022-08-31T23:57:32.928Z,101706.12
